Terminal Aerodrome Forecast
Issued by NWS Boston, MA

Home | Current Version | Previous Version | Text Only | Print | Product List | Glossary On
Versions: 1 2 3 4 5 6 7 8 9 10 11 12 13 14
000
FTUS41 KBOX 312320
TAFORH
TAF
KORH 312320Z 0100/0124 24008KT P6SM BKN100
     FM010300 23006KT P6SM VCSH BKN050
     FM010900 27005KT P6SM VCSH OVC030
     FM011300 VRB03KT P6SM OVC060
     FM011900 31005KT P6SM BKN040=

USA.gov is the U.S. government's official web portal to all federal, state and local government web resources and services.